sensor_id;sensor_type;location;lat;lon;timestamp;pressure;altitude;pressure_sealevel;temperature;humidity
9141;BME280;46330;50.822;7.126;2023-02-28T00:00:38;102234.66;;;0.05;74.34
9141;BME280;46330;50.822;7.126;2023-02-28T00:03:06;102229.22;;;-0.01;74.75
9141;BME280;46330;50.822;7.126;2023-02-28T00:05:34;102230.31;;;0.04;74.82
9141;BME280;46330;50.822;7.126;2023-02-28T00:08:02;102230.16;;;0.01;74.71
9141;BME280;46330;50.822;7.126;2023-02-28T00:10:32;102227.38;;;-0.04;75.08
9141;BME280;46330;50.822;7.126;2023-02-28T00:13:01;102227.38;;;-0.04;74.83
9141;BME280;46330;50.822;7.126;2023-02-28T00:15:29;102228.69;;;-0.12;75.57
9141;BME280;46330;50.822;7.126;2023-02-28T00:17:57;102222.75;;;-0.11;75.31
9141;BME280;46330;50.822;7.126;2023-02-28T00:20:25;102230.50;;;-0.09;75.28
9141;BME280;46330;50.822;7.126;2023-02-28T00:22:54;102226.06;;;-0.13;74.99
9141;BME280;46330;50.822;7.126;2023-02-28T00:25:24;102230.06;;;-0.18;75.48
9141;BME280;46330;50.822;7.126;2023-02-28T00:27:53;102230.66;;;-0.24;76.10
9141;BME280;46330;50.822;7.126;2023-02-28T00:30:23;102230.66;;;-0.24;76.27
9141;BME280;46330;50.822;7.126;2023-02-28T00:32:51;102228.66;;;-0.29;75.97
9141;BME280;46330;50.822;7.126;2023-02-28T00:35:19;102229.41;;;-0.32;75.96
9141;BME280;46330;50.822;7.126;2023-02-28T00:37:48;102229.94;;;-0.37;76.76
9141;BME280;46330;50.822;7.126;2023-02-28T00:40:16;102224.91;;;-0.36;76.34
9141;BME280;46330;50.822;7.126;2023-02-28T00:42:44;102230.84;;;-0.37;76.51
9141;BME280;46330;50.822;7.126;2023-02-28T00:45:13;102227.97;;;-0.43;76.73
9141;BME280;46330;50.822;7.126;2023-02-28T00:47:41;102232.16;;;-0.45;76.82
9141;BME280;46330;50.822;7.126;2023-02-28T00:50:10;102227.06;;;-0.43;76.83
9141;BME280;46330;50.822;7.126;2023-02-28T00:52:38;102236.50;;;-0.44;76.68
9141;BME280;46330;50.822;7.126;2023-02-28T00:55:07;102228.78;;;-0.44;76.89
9141;BME280;46330;50.822;7.126;2023-02-28T00:57:35;102238.19;;;-0.44;76.71
9141;BME280;46330;50.822;7.126;2023-02-28T01:00:04;102243.31;;;-0.44;76.80
9141;BME280;46330;50.822;7.126;2023-02-28T01:02:34;102232.94;;;-0.46;76.89
9141;BME280;46330;50.822;7.126;2023-02-28T01:05:02;102239.72;;;-0.48;77.22
9141;BME280;46330;50.822;7.126;2023-02-28T01:07:30;102238.03;;;-0.47;77.03
9141;BME280;46330;50.822;7.126;2023-02-28T01:09:58;102233.53;;;-0.51;77.37
9141;BME280;46330;50.822;7.126;2023-02-28T01:12:26;102233.63;;;-0.50;77.47
9141;BME280;46330;50.822;7.126;2023-02-28T01:14:56;102234.31;;;-0.52;77.16
9141;BME280;46330;50.822;7.126;2023-02-28T01:17:24;102241.00;;;-0.56;77.27
9141;BME280;46330;50.822;7.126;2023-02-28T01:19:54;102236.84;;;-0.54;77.43
9141;BME280;46330;50.822;7.126;2023-02-28T01:22:24;102246.94;;;-0.57;76.93
9141;BME280;46330;50.822;7.126;2023-02-28T01:24:52;102250.41;;;-0.57;77.42
9141;BME280;46330;50.822;7.126;2023-02-28T01:27:20;102251.03;;;-0.61;77.36
9141;BME280;46330;50.822;7.126;2023-02-28T01:29:48;102252.81;;;-0.60;77.51
9141;BME280;46330;50.822;7.126;2023-02-28T01:32:16;102244.38;;;-0.57;77.61
9141;BME280;46330;50.822;7.126;2023-02-28T01:34:44;102233.94;;;-0.60;77.35
9141;BME280;46330;50.822;7.126;2023-02-28T01:37:13;102227.66;;;-0.65;77.43
9141;BME280;46330;50.822;7.126;2023-02-28T01:39:43;102234.13;;;-0.73;77.92
9141;BME280;46330;50.822;7.126;2023-02-28T01:42:11;102241.09;;;-0.71;77.95
9141;BME280;46330;50.822;7.126;2023-02-28T01:45:03;102228.19;;;-0.72;77.93
9141;BME280;46330;50.822;7.126;2023-02-28T01:47:34;102226.50;;;-0.72;77.50
9141;BME280;46330;50.822;7.126;2023-02-28T01:50:06;102227.31;;;-0.73;77.46
9141;BME280;46330;50.822;7.126;2023-02-28T01:52:36;102223.75;;;-0.75;77.92
9141;BME280;46330;50.822;7.126;2023-02-28T01:55:06;102221.75;;;-0.80;78.21
9141;BME280;46330;50.822;7.126;2023-02-28T01:57:37;102211.56;;;-0.79;77.91
9141;BME280;46330;50.822;7.126;2023-02-28T02:00:09;102215.72;;;-0.81;77.93
9141;BME280;46330;50.822;7.126;2023-02-28T02:02:41;102216.63;;;-0.80;77.99
9141;BME280;46330;50.822;7.126;2023-02-28T02:05:14;102216.63;;;-0.80;78.02
9141;BME280;46330;50.822;7.126;2023-02-28T02:07:46;102218.28;;;-0.81;77.86
9141;BME280;46330;50.822;7.126;2023-02-28T02:10:17;102213.16;;;-0.81;77.71
9141;BME280;46330;50.822;7.126;2023-02-28T02:15:54;102212.31;;;-0.81;77.88
9141;BME280;46330;50.822;7.126;2023-02-28T02:18:31;102209.72;;;-0.81;77.89
9141;BME280;46330;50.822;7.126;2023-02-28T02:21:18;102205.88;;;-0.89;78.19
9141;BME280;46330;50.822;7.126;2023-02-28T02:27:17;102201.06;;;-0.99;78.13
9141;BME280;46330;50.822;7.126;2023-02-28T02:30:04;102201.72;;;-1.03;78.53
9141;BME280;46330;50.822;7.126;2023-02-28T02:35:40;102191.75;;;-1.14;78.77
9141;BME280;46330;50.822;7.126;2023-02-28T02:38:16;102198.41;;;-1.17;79.13
9141;BME280;46330;50.822;7.126;2023-02-28T02:40:55;102195.84;;;-1.17;79.35
9141;BME280;46330;50.822;7.126;2023-02-28T02:43:29;102201.53;;;-1.23;79.37
9141;BME280;46330;50.822;7.126;2023-02-28T02:46:04;102200.34;;;-1.29;79.84
9141;BME280;46330;50.822;7.126;2023-02-28T02:48:35;102193.53;;;-1.29;79.73
9141;BME280;46330;50.822;7.126;2023-02-28T02:51:09;102193.69;;;-1.26;79.73
9141;BME280;46330;50.822;7.126;2023-02-28T02:53:44;102208.13;;;-1.28;79.27
9141;BME280;46330;50.822;7.126;2023-02-28T02:56:17;102196.88;;;-1.30;79.51
9141;BME280;46330;50.822;7.126;2023-02-28T02:58:48;102197.34;;;-1.37;79.53
9141;BME280;46330;50.822;7.126;2023-02-28T03:01:20;102202.47;;;-1.37;79.59
9141;BME280;46330;50.822;7.126;2023-02-28T03:03:56;102203.19;;;-1.39;79.74
9141;BME280;46330;50.822;7.126;2023-02-28T03:06:26;102204.88;;;-1.40;80.04
9141;BME280;46330;50.822;7.126;2023-02-28T03:08:54;102199.50;;;-1.44;79.99
9141;BME280;46330;50.822;7.126;2023-02-28T03:11:22;102200.31;;;-1.45;80.21
9141;BME280;46330;50.822;7.126;2023-02-28T03:14:01;102201.91;;;-1.47;79.39
9141;BME280;46330;50.822;7.126;2023-02-28T03:20:02;102194.69;;;-1.54;80.56
9141;BME280;46330;50.822;7.126;2023-02-28T03:22:48;102196.13;;;-1.59;80.52
9141;BME280;46330;50.822;7.126;2023-02-28T03:25:25;102194.91;;;-1.66;80.68
9141;BME280;46330;50.822;7.126;2023-02-28T03:28:00;102187.75;;;-1.72;81.07
9141;BME280;46330;50.822;7.126;2023-02-28T03:30:35;102188.28;;;-1.77;80.99
9141;BME280;46330;50.822;7.126;2023-02-28T03:33:08;102197.06;;;-1.88;81.46
9141;BME280;46330;50.822;7.126;2023-02-28T03:35:42;102194.19;;;-1.94;81.98
9141;BME280;46330;50.822;7.126;2023-02-28T03:38:15;102187.53;;;-1.91;81.50
9141;BME280;46330;50.822;7.126;2023-02-28T03:40:48;102197.63;;;-1.94;81.24
9141;BME280;46330;50.822;7.126;2023-02-28T03:43:20;102202.66;;;-1.95;81.53
9141;BME280;46330;50.822;7.126;2023-02-28T03:45:50;102192.78;;;-2.04;81.97
9141;BME280;46330;50.822;7.126;2023-02-28T03:48:22;102202.75;;;-2.08;81.96
9141;BME280;46330;50.822;7.126;2023-02-28T03:50:53;102185.69;;;-2.08;81.09
9141;BME280;46330;50.822;7.126;2023-02-28T03:53:28;102203.66;;;-1.93;78.93
9141;BME280;46330;50.822;7.126;2023-02-28T03:56:07;102190.00;;;-1.92;78.75
9141;BME280;46330;50.822;7.126;2023-02-28T03:58:41;102191.94;;;-1.88;77.80
9141;BME280;46330;50.822;7.126;2023-02-28T04:01:14;102194.97;;;-1.81;77.15
9141;BME280;46330;50.822;7.126;2023-02-28T04:03:43;102192.78;;;-1.73;76.31
9141;BME280;46330;50.822;7.126;2023-02-28T04:06:15;102202.44;;;-1.69;75.85
9141;BME280;46330;50.822;7.126;2023-02-28T04:08:46;102200.19;;;-1.63;75.32
9141;BME280;46330;50.822;7.126;2023-02-28T04:11:20;102203.00;;;-1.58;75.07
9141;BME280;46330;50.822;7.126;2023-02-28T04:13:49;102192.91;;;-1.55;74.70
9141;BME280;46330;50.822;7.126;2023-02-28T04:16:18;102191.22;;;-1.55;75.12
9141;BME280;46330;50.822;7.126;2023-02-28T04:19:01;102201.31;;;-1.58;74.41
9141;BME280;46330;50.822;7.126;2023-02-28T04:21:30;102208.28;;;-1.55;74.36
9141;BME280;46330;50.822;7.126;2023-02-28T04:24:00;102192.28;;;-1.51;74.06
9141;BME280;46330;50.822;7.126;2023-02-28T04:26:29;102200.69;;;-1.54;74.05
9141;BME280;46330;50.822;7.126;2023-02-28T04:28:59;102209.28;;;-1.53;73.72
9141;BME280;46330;50.822;7.126;2023-02-28T04:31:27;102204.16;;;-1.53;73.86
9141;BME280;46330;50.822;7.126;2023-02-28T04:33:56;102206.72;;;-1.53;74.12
9141;BME280;46330;50.822;7.126;2023-02-28T04:36:24;102205.91;;;-1.52;73.40
9141;BME280;46330;50.822;7.126;2023-02-28T04:38:52;102202.81;;;-1.47;72.24
9141;BME280;46330;50.822;7.126;2023-02-28T04:41:22;102209.22;;;-1.39;71.69
9141;BME280;46330;50.822;7.126;2023-02-28T04:43:51;102203.63;;;-1.32;70.96
9141;BME280;46330;50.822;7.126;2023-02-28T04:46:19;102204.50;;;-1.31;70.97
9141;BME280;46330;50.822;7.126;2023-02-28T04:48:47;102206.50;;;-1.26;70.48
9141;BME280;46330;50.822;7.126;2023-02-28T04:51:17;102216.78;;;-1.26;70.47
9141;BME280;46330;50.822;7.126;2023-02-28T04:53:46;102218.41;;;-1.28;71.18
9141;BME280;46330;50.822;7.126;2023-02-28T04:56:15;102219.03;;;-1.32;70.74
9141;BME280;46330;50.822;7.126;2023-02-28T04:58:46;102219.91;;;-1.31;70.96
9141;BME280;46330;50.822;7.126;2023-02-28T05:01:22;102220.28;;;-1.40;71.56
9141;BME280;46330;50.822;7.126;2023-02-28T05:03:53;102221.25;;;-1.38;71.08
9141;BME280;46330;50.822;7.126;2023-02-28T05:06:22;102228.69;;;-1.42;71.35
9141;BME280;46330;50.822;7.126;2023-02-28T05:08:51;102225.06;;;-1.46;71.21
9141;BME280;46330;50.822;7.126;2023-02-28T05:11:21;102225.91;;;-1.47;71.07
9141;BME280;46330;50.822;7.126;2023-02-28T05:13:51;102229.16;;;-1.49;71.73
9141;BME280;46330;50.822;7.126;2023-02-28T05:16:20;102230.69;;;-1.53;72.11
9141;BME280;46330;50.822;7.126;2023-02-28T05:18:48;102231.22;;;-1.58;72.09
9141;BME280;46330;50.822;7.126;2023-02-28T05:21:34;102228.47;;;-1.62;72.16
9141;BME280;46330;50.822;7.126;2023-02-28T05:24:04;102233.53;;;-1.63;72.54
9141;BME280;46330;50.822;7.126;2023-02-28T05:26:34;102235.06;;;-1.67;72.58
9141;BME280;46330;50.822;7.126;2023-02-28T05:29:04;102228.16;;;-1.68;72.73
9141;BME280;46330;50.822;7.126;2023-02-28T05:31:32;102233.09;;;-1.71;72.92
9141;BME280;46330;50.822;7.126;2023-02-28T05:34:01;102231.97;;;-1.76;73.53
9141;BME280;46330;50.822;7.126;2023-02-28T05:36:31;102230.31;;;-1.75;73.35
9141;BME280;46330;50.822;7.126;2023-02-28T05:38:59;102232.06;;;-1.74;73.46
9141;BME280;46330;50.822;7.126;2023-02-28T05:41:27;102217.38;;;-1.77;73.30
9141;BME280;46330;50.822;7.126;2023-02-28T05:43:57;102229.59;;;-1.73;73.54
9141;BME280;46330;50.822;7.126;2023-02-28T05:46:27;102229.47;;;-1.74;73.39
9141;BME280;46330;50.822;7.126;2023-02-28T05:48:55;102232.06;;;-1.74;73.80
9141;BME280;46330;50.822;7.126;2023-02-28T05:51:24;102227.56;;;-1.78;74.31
9141;BME280;46330;50.822;7.126;2023-02-28T05:53:52;102225.78;;;-1.79;73.92
9141;BME280;46330;50.822;7.126;2023-02-28T05:56:20;102232.53;;;-1.81;74.11
9141;BME280;46330;50.822;7.126;2023-02-28T05:58:48;102229.06;;;-1.82;74.09
9141;BME280;46330;50.822;7.126;2023-02-28T06:01:24;102235.97;;;-1.81;74.04
9141;BME280;46330;50.822;7.126;2023-02-28T06:03:54;102233.41;;;-1.81;74.11
9141;BME280;46330;50.822;7.126;2023-02-28T06:06:22;102228.97;;;-1.83;74.05
9141;BME280;46330;50.822;7.126;2023-02-28T06:08:50;102224.56;;;-1.86;74.22
9141;BME280;46330;50.822;7.126;2023-02-28T06:11:18;102230.47;;;-1.87;74.00
9141;BME280;46330;50.822;7.126;2023-02-28T06:13:47;102226.16;;;-1.88;74.09
9141;BME280;46330;50.822;7.126;2023-02-28T06:16:15;102226.25;;;-1.86;74.07
9141;BME280;46330;50.822;7.126;2023-02-28T06:18:43;102231.13;;;-1.91;73.97
9141;BME280;46330;50.822;7.126;2023-02-28T06:21:13;102238.81;;;-1.91;73.95
9141;BME280;46330;50.822;7.126;2023-02-28T06:23:41;102241.28;;;-1.92;74.38
9141;BME280;46330;50.822;7.126;2023-02-28T06:26:09;102242.16;;;-1.92;74.23
9141;BME280;46330;50.822;7.126;2023-02-28T06:28:37;102245.44;;;-1.94;74.58
9141;BME280;46330;50.822;7.126;2023-02-28T06:31:07;102250.47;;;-1.96;74.64
9141;BME280;46330;50.822;7.126;2023-02-28T06:33:35;102250.31;;;-1.99;75.29
9141;BME280;46330;50.822;7.126;2023-02-28T06:36:05;102258.72;;;-2.01;75.51
9141;BME280;46330;50.822;7.126;2023-02-28T06:38:35;102257.81;;;-2.02;75.18
9141;BME280;46330;50.822;7.126;2023-02-28T06:41:03;102254.41;;;-2.02;75.83
9141;BME280;46330;50.822;7.126;2023-02-28T06:43:34;102254.13;;;-2.07;75.61
9141;BME280;46330;50.822;7.126;2023-02-28T06:46:06;102262.09;;;-2.02;76.07
9141;BME280;46330;50.822;7.126;2023-02-28T06:48:35;102270.19;;;-1.95;75.84
9141;BME280;46330;50.822;7.126;2023-02-28T06:51:04;102273.09;;;-1.89;75.85
9141;BME280;46330;50.822;7.126;2023-02-28T06:53:34;102266.75;;;-1.81;75.69
9141;BME280;46330;50.822;7.126;2023-02-28T06:56:04;102277.16;;;-1.63;73.73
9141;BME280;46330;50.822;7.126;2023-02-28T06:58:32;102272.09;;;-1.31;72.08
9141;BME280;46330;50.822;7.126;2023-02-28T07:01:00;102274.56;;;-1.01;70.62
9141;BME280;46330;50.822;7.126;2023-02-28T07:03:29;102279.78;;;-0.84;69.38
9141;BME280;46330;50.822;7.126;2023-02-28T07:06:00;102281.25;;;-0.57;67.88
9141;BME280;46330;50.822;7.126;2023-02-28T07:08:29;102286.84;;;0.03;66.00
9141;BME280;46330;50.822;7.126;2023-02-28T07:10:59;102279.28;;;0.59;63.35
9141;BME280;46330;50.822;7.126;2023-02-28T07:13:27;102287.81;;;0.94;60.42
9141;BME280;46330;50.822;7.126;2023-02-28T07:15:56;102277.56;;;1.52;59.34
9141;BME280;46330;50.822;7.126;2023-02-28T07:18:24;102275.09;;;1.95;57.01
9141;BME280;46330;50.822;7.126;2023-02-28T07:20:53;102280.56;;;2.02;55.20
9141;BME280;46330;50.822;7.126;2023-02-28T07:23:21;102287.00;;;2.33;54.52
9141;BME280;46330;50.822;7.126;2023-02-28T07:25:50;102286.19;;;2.56;53.63
9141;BME280;46330;50.822;7.126;2023-02-28T07:28:20;102280.03;;;2.52;53.39
9141;BME280;46330;50.822;7.126;2023-02-28T07:30:48;102277.81;;;3.06;51.67
9141;BME280;46330;50.822;7.126;2023-02-28T07:33:17;102291.63;;;3.77;49.28
9141;BME280;46330;50.822;7.126;2023-02-28T07:35:45;102291.06;;;3.61;48.63
9141;BME280;46330;50.822;7.126;2023-02-28T07:38:13;102288.47;;;4.11;47.99
9141;BME280;46330;50.822;7.126;2023-02-28T07:40:41;102290.69;;;4.51;46.52
9141;BME280;46330;50.822;7.126;2023-02-28T07:43:09;102286.31;;;3.73;47.40
9141;BME280;46330;50.822;7.126;2023-02-28T07:45:38;102287.75;;;4.42;47.22
9141;BME280;46330;50.822;7.126;2023-02-28T07:48:07;102290.72;;;4.81;45.04
9141;BME280;46330;50.822;7.126;2023-02-28T07:50:36;102287.81;;;4.99;43.86
9141;BME280;46330;50.822;7.126;2023-02-28T07:53:04;102285.28;;;4.72;45.07
9141;BME280;46330;50.822;7.126;2023-02-28T07:55:32;102285.31;;;5.31;43.95
9141;BME280;46330;50.822;7.126;2023-02-28T07:58:00;102283.53;;;5.29;44.33
9141;BME280;46330;50.822;7.126;2023-02-28T08:00:28;102285.94;;;5.53;42.90
9141;BME280;46330;50.822;7.126;2023-02-28T08:02:59;102296.88;;;5.42;42.72
9141;BME280;46330;50.822;7.126;2023-02-28T08:05:27;102285.59;;;5.40;41.81
9141;BME280;46330;50.822;7.126;2023-02-28T08:07:56;102299.91;;;5.28;42.58
9141;BME280;46330;50.822;7.126;2023-02-28T08:10:24;102294.47;;;5.19;42.24
9141;BME280;46330;50.822;7.126;2023-02-28T08:12:52;102288.66;;;5.27;41.62
9141;BME280;46330;50.822;7.126;2023-02-28T08:15:20;102288.50;;;5.21;42.15
9141;BME280;46330;50.822;7.126;2023-02-28T08:17:48;102281.41;;;5.46;40.20
9141;BME280;46330;50.822;7.126;2023-02-28T08:20:17;102290.44;;;5.28;41.01
9141;BME280;46330;50.822;7.126;2023-02-28T08:22:45;102288.88;;;4.77;41.54
9141;BME280;46330;50.822;7.126;2023-02-28T08:25:13;102299.75;;;4.94;40.51
9141;BME280;46330;50.822;7.126;2023-02-28T08:27:42;102291.47;;;5.05;39.72
9141;BME280;46330;50.822;7.126;2023-02-28T08:30:11;102281.94;;;4.49;41.20
9141;BME280;46330;50.822;7.126;2023-02-28T08:32:39;102289.31;;;5.50;39.45
9141;BME280;46330;50.822;7.126;2023-02-28T08:35:08;102299.69;;;5.81;39.63
9141;BME280;46330;50.822;7.126;2023-02-28T08:37:38;102288.06;;;5.67;38.06
9141;BME280;46330;50.822;7.126;2023-02-28T08:40:07;102293.66;;;5.20;39.64
9141;BME280;46330;50.822;7.126;2023-02-28T08:42:35;102297.19;;;6.52;37.37
9141;BME280;46330;50.822;7.126;2023-02-28T08:45:04;102296.88;;;5.42;37.43
9141;BME280;46330;50.822;7.126;2023-02-28T08:47:32;102305.72;;;5.49;38.17
9141;BME280;46330;50.822;7.126;2023-02-28T08:50:00;102306.53;;;5.17;38.48
9141;BME280;46330;50.822;7.126;2023-02-28T08:52:28;102298.75;;;5.48;38.40
9141;BME280;46330;50.822;7.126;2023-02-28T08:54:58;102297.72;;;6.04;36.69
9141;BME280;46330;50.822;7.126;2023-02-28T08:57:26;102297.56;;;5.98;36.83
9141;BME280;46330;50.822;7.126;2023-02-28T08:59:54;102300.88;;;6.61;35.92
9141;BME280;46330;50.822;7.126;2023-02-28T09:02:22;102307.72;;;5.28;36.81
9141;BME280;46330;50.822;7.126;2023-02-28T09:04:50;102287.00;;;5.61;36.71
9141;BME280;46330;50.822;7.126;2023-02-28T09:07:18;102296.56;;;5.93;36.36
9141;BME280;46330;50.822;7.126;2023-02-28T09:09:46;102286.06;;;5.88;35.72
9141;BME280;46330;50.822;7.126;2023-02-28T09:12:23;102277.19;;;6.49;35.87
9141;BME280;46330;50.822;7.126;2023-02-28T09:14:52;102286.97;;;6.96;34.56
9141;BME280;46330;50.822;7.126;2023-02-28T09:17:20;102288.66;;;5.57;35.36
9141;BME280;46330;50.822;7.126;2023-02-28T09:19:48;102288.97;;;5.38;35.96
9141;BME280;46330;50.822;7.126;2023-02-28T09:22:16;102281.88;;;5.64;36.49
9141;BME280;46330;50.822;7.126;2023-02-28T09:24:44;102285.84;;;6.14;36.33
9141;BME280;46330;50.822;7.126;2023-02-28T09:27:12;102289.09;;;6.05;35.26
9141;BME280;46330;50.822;7.126;2023-02-28T09:29:42;102284.31;;;5.58;36.45
9141;BME280;46330;50.822;7.126;2023-02-28T09:32:10;102286.41;;;5.69;36.95
9141;BME280;46330;50.822;7.126;2023-02-28T09:34:38;102283.50;;;6.59;36.00
9141;BME280;46330;50.822;7.126;2023-02-28T09:37:07;102274.03;;;5.92;35.77
9141;BME280;46330;50.822;7.126;2023-02-28T09:39:35;102282.06;;;6.73;34.70
9141;BME280;46330;50.822;7.126;2023-02-28T09:42:04;102280.22;;;7.46;34.32
9141;BME280;46330;50.822;7.126;2023-02-28T09:44:36;102272.41;;;6.30;33.66
9141;BME280;46330;50.822;7.126;2023-02-28T09:47:11;102274.16;;;7.06;33.69
9141;BME280;46330;50.822;7.126;2023-02-28T09:49:41;102274.91;;;6.25;33.40
9141;BME280;46330;50.822;7.126;2023-02-28T09:52:12;102281.28;;;6.04;35.14
9141;BME280;46330;50.822;7.126;2023-02-28T09:54:42;102266.09;;;6.56;34.16
9141;BME280;46330;50.822;7.126;2023-02-28T09:57:17;102272.66;;;6.40;35.26
9141;BME280;46330;50.822;7.126;2023-02-28T09:59:58;102269.50;;;7.33;33.77
9141;BME280;46330;50.822;7.126;2023-02-28T10:02:57;102262.94;;;7.08;34.01
9141;BME280;46330;50.822;7.126;2023-02-28T10:05:33;102258.00;;;7.67;32.66
9141;BME280;46330;50.822;7.126;2023-02-28T10:08:09;102257.84;;;7.57;32.58
9141;BME280;46330;50.822;7.126;2023-02-28T10:10:41;102267.03;;;6.97;33.04
9141;BME280;46330;50.822;7.126;2023-02-28T10:13:19;102272.22;;;7.37;32.25
9141;BME280;46330;50.822;7.126;2023-02-28T10:15:50;102259.88;;;6.87;31.71
9141;BME280;46330;50.822;7.126;2023-02-28T10:18:24;102256.16;;;8.07;30.98
9141;BME280;46330;50.822;7.126;2023-02-28T10:20:55;102263.94;;;6.38;33.31
9141;BME280;46330;50.822;7.126;2023-02-28T10:23:26;102260.66;;;6.45;33.39
9141;BME280;46330;50.822;7.126;2023-02-28T10:26:00;102260.06;;;6.96;33.94
9141;BME280;46330;50.822;7.126;2023-02-28T10:28:29;102258.38;;;7.41;32.68
9141;BME280;46330;50.822;7.126;2023-02-28T10:30:58;102258.84;;;7.63;31.49
9141;BME280;46330;50.822;7.126;2023-02-28T10:33:31;102249.22;;;7.17;32.11
9141;BME280;46330;50.822;7.126;2023-02-28T10:36:01;102247.03;;;7.81;31.08
9141;BME280;46330;50.822;7.126;2023-02-28T10:38:33;102255.97;;;7.07;32.14
9141;BME280;46330;50.822;7.126;2023-02-28T10:41:06;102259.88;;;6.14;32.90
9141;BME280;46330;50.822;7.126;2023-02-28T10:43:35;102253.84;;;6.89;32.14
9141;BME280;46330;50.822;7.126;2023-02-28T10:46:09;102246.25;;;7.87;31.03
9141;BME280;46330;50.822;7.126;2023-02-28T10:48:44;102240.50;;;8.07;31.04
9141;BME280;46330;50.822;7.126;2023-02-28T10:51:16;102238.63;;;7.99;30.57
9141;BME280;46330;50.822;7.126;2023-02-28T10:53:48;102243.06;;;7.13;31.24
9141;BME280;46330;50.822;7.126;2023-02-28T10:56:28;102234.88;;;8.31;30.96
9141;BME280;46330;50.822;7.126;2023-02-28T10:58:59;102238.09;;;8.18;30.65
9141;BME280;46330;50.822;7.126;2023-02-28T11:01:37;102220.41;;;9.17;29.64
9141;BME280;46330;50.822;7.126;2023-02-28T11:04:18;102232.63;;;8.57;30.70
9141;BME280;46330;50.822;7.126;2023-02-28T11:06:56;102230.03;;;8.04;30.46
9141;BME280;46330;50.822;7.126;2023-02-28T11:09:28;102236.78;;;8.44;30.03
9141;BME280;46330;50.822;7.126;2023-02-28T11:11:58;102231.22;;;7.27;30.88
9141;BME280;46330;50.822;7.126;2023-02-28T11:14:28;102240.28;;;6.64;33.11
9141;BME280;46330;50.822;7.126;2023-02-28T11:17:00;102223.03;;;7.08;31.72
9141;BME280;46330;50.822;7.126;2023-02-28T11:19:35;102225.41;;;6.97;31.87
9141;BME280;46330;50.822;7.126;2023-02-28T11:22:07;102222.44;;;7.66;30.89
9141;BME280;46330;50.822;7.126;2023-02-28T11:24:42;102224.00;;;8.07;30.57
9141;BME280;46330;50.822;7.126;2023-02-28T11:27:26;102220.81;;;8.25;30.37
9141;BME280;46330;50.822;7.126;2023-02-28T11:29:58;102214.09;;;8.37;30.03
9141;BME280;46330;50.822;7.126;2023-02-28T11:32:32;102212.63;;;8.56;29.36
9141;BME280;46330;50.822;7.126;2023-02-28T11:35:14;102217.38;;;8.86;30.32
9141;BME280;46330;50.822;7.126;2023-02-28T11:37:44;102208.41;;;9.35;29.89
9141;BME280;46330;50.822;7.126;2023-02-28T11:40:14;102193.66;;;10.38;28.65
9141;BME280;46330;50.822;7.126;2023-02-28T11:42:50;102218.03;;;8.14;29.33
9141;BME280;46330;50.822;7.126;2023-02-28T11:45:36;102212.38;;;8.41;29.88
9141;BME280;46330;50.822;7.126;2023-02-28T11:48:15;102221.16;;;9.09;30.46
9141;BME280;46330;50.822;7.126;2023-02-28T11:50:57;102219.09;;;8.84;29.97
9141;BME280;46330;50.822;7.126;2023-02-28T11:53:41;102220.97;;;7.81;31.44
9141;BME280;46330;50.822;7.126;2023-02-28T11:56:18;102209.13;;;8.01;30.70
9141;BME280;46330;50.822;7.126;2023-02-28T11:58:58;102211.69;;;7.97;30.00
9141;BME280;46330;50.822;7.126;2023-02-28T12:01:42;102211.00;;;8.08;30.72
9141;BME280;46330;50.822;7.126;2023-02-28T12:04:25;102211.63;;;7.94;30.90
9141;BME280;46330;50.822;7.126;2023-02-28T12:07:01;102198.28;;;8.87;30.64
9141;BME280;46330;50.822;7.126;2023-02-28T12:09:42;102196.84;;;9.99;29.16
9141;BME280;46330;50.822;7.126;2023-02-28T12:12:22;102210.63;;;8.37;29.91
9141;BME280;46330;50.822;7.126;2023-02-28T12:15:27;102217.13;;;7.60;32.13
9141;BME280;46330;50.822;7.126;2023-02-28T12:18:13;102215.28;;;8.60;31.54
9141;BME280;46330;50.822;7.126;2023-02-28T12:20:53;102207.25;;;8.47;31.67
9141;BME280;46330;50.822;7.126;2023-02-28T12:23:45;102204.78;;;8.54;30.35
9141;BME280;46330;50.822;7.126;2023-02-28T12:26:19;102202.13;;;9.17;30.19
9141;BME280;46330;50.822;7.126;2023-02-28T12:28:53;102189.63;;;9.70;29.62
9141;BME280;46330;50.822;7.126;2023-02-28T12:31:24;102185.13;;;9.59;29.01
9141;BME280;46330;50.822;7.126;2023-02-28T12:33:59;102188.78;;;8.95;30.45
9141;BME280;46330;50.822;7.126;2023-02-28T12:36:29;102193.47;;;7.98;30.50
9141;BME280;46330;50.822;7.126;2023-02-28T12:39:01;102190.31;;;8.19;31.54
9141;BME280;46330;50.822;7.126;2023-02-28T12:41:36;102185.50;;;7.89;31.59
9141;BME280;46330;50.822;7.126;2023-02-28T12:44:08;102184.97;;;8.67;31.60
9141;BME280;46330;50.822;7.126;2023-02-28T12:46:41;102185.19;;;8.85;32.40
9141;BME280;46330;50.822;7.126;2023-02-28T12:49:14;102183.56;;;8.93;32.11
9141;BME280;46330;50.822;7.126;2023-02-28T12:51:44;102178.06;;;8.72;31.12
9141;BME280;46330;50.822;7.126;2023-02-28T12:54:21;102169.97;;;8.51;30.56
9141;BME280;46330;50.822;7.126;2023-02-28T12:56:57;102179.66;;;9.33;30.86
9141;BME280;46330;50.822;7.126;2023-02-28T12:59:36;102169.44;;;8.19;31.52
9141;BME280;46330;50.822;7.126;2023-02-28T13:02:57;102165.59;;;8.48;31.95
9141;BME280;46330;50.822;7.126;2023-02-28T13:11:42;102162.22;;;8.00;32.69
9141;BME280;46330;50.822;7.126;2023-02-28T13:14:20;102149.41;;;8.75;32.21
9141;BME280;46330;50.822;7.126;2023-02-28T13:17:09;102147.63;;;8.73;32.30
9141;BME280;46330;50.822;7.126;2023-02-28T13:19:41;102147.84;;;7.71;33.63
9141;BME280;46330;50.822;7.126;2023-02-28T13:22:18;102158.19;;;8.20;34.39
9141;BME280;46330;50.822;7.126;2023-02-28T13:24:48;102150.19;;;7.55;34.26
9141;BME280;46330;50.822;7.126;2023-02-28T13:27:37;102149.22;;;8.60;33.91
9141;BME280;46330;50.822;7.126;2023-02-28T13:33:28;102139.63;;;7.99;33.99
9141;BME280;46330;50.822;7.126;2023-02-28T13:36:22;102144.88;;;8.59;32.84
9141;BME280;46330;50.822;7.126;2023-02-28T13:38:51;102145.34;;;8.32;33.31
9141;BME280;46330;50.822;7.126;2023-02-28T13:41:45;102140.66;;;8.69;32.54
9141;BME280;46330;50.822;7.126;2023-02-28T13:44:18;102130.59;;;9.03;31.86
9141;BME280;46330;50.822;7.126;2023-02-28T13:47:19;102133.63;;;8.64;32.81
9141;BME280;46330;50.822;7.126;2023-02-28T13:49:49;102142.50;;;8.16;33.19
9141;BME280;46330;50.822;7.126;2023-02-28T13:52:20;102132.31;;;8.32;32.65